createdAt,value
2018-11-23T00:00:33.896Z,20.97
2018-11-23T00:03:03.414Z,19.23
2018-11-23T00:05:32.896Z,21.57
2018-11-23T00:08:02.487Z,22.93
2018-11-23T00:10:33.049Z,21.10
2018-11-23T00:13:02.411Z,19.00
2018-11-23T00:15:31.744Z,23.03
2018-11-23T00:18:01.147Z,19.37
2018-11-23T00:20:30.722Z,26.37
2018-11-23T00:23:00.115Z,19.80
2018-11-23T00:25:29.501Z,19.63
2018-11-23T00:27:58.997Z,15.90
2018-11-23T00:30:29.640Z,28.63
2018-11-23T00:32:59.106Z,17.00
2018-11-23T00:35:29.702Z,19.03
2018-11-23T00:37:59.037Z,18.63
2018-11-23T00:40:30.563Z,18.40
2018-11-23T00:43:00.383Z,19.77
2018-11-23T00:45:29.846Z,19.57
2018-11-23T00:47:59.801Z,17.33
2018-11-23T00:50:29.162Z,17.20
2018-11-23T00:52:59.836Z,17.67
2018-11-23T00:55:30.662Z,16.20
2018-11-23T00:58:00.013Z,17.27
2018-11-23T01:00:32.678Z,17.13
2018-11-23T01:03:03.644Z,18.47
2018-11-23T01:05:33.109Z,16.60
2018-11-23T01:08:02.553Z,18.23
2018-11-23T01:10:31.948Z,18.57
2018-11-23T01:13:01.432Z,23.63
2018-11-23T01:15:30.959Z,18.33
2018-11-23T01:18:00.406Z,24.37
2018-11-23T01:20:30.194Z,21.27
2018-11-23T01:22:59.780Z,27.17
2018-11-23T01:25:29.236Z,18.03
2018-11-23T01:27:58.801Z,27.13
2018-11-23T01:30:30.329Z,38.17
2018-11-23T01:32:59.804Z,25.23
2018-11-23T01:35:29.349Z,26.53
2018-11-23T01:37:58.801Z,16.57
2018-11-23T01:40:29.547Z,20.30
2018-11-23T01:42:59.349Z,22.87
2018-11-23T01:45:28.823Z,15.00
2018-11-23T01:47:58.190Z,20.80
2018-11-23T01:50:28.961Z,15.20
2018-11-23T01:52:58.709Z,13.63
2018-11-23T01:55:28.219Z,13.90
2018-11-23T01:57:57.592Z,12.90
2018-11-23T02:00:28.064Z,15.97
2018-11-23T02:02:57.866Z,12.60
2018-11-23T02:05:27.354Z,13.93
2018-11-23T02:07:56.798Z,14.43
2018-11-23T02:10:26.370Z,13.80
2018-11-23T02:12:55.781Z,13.37
2018-11-23T02:15:25.247Z,13.40
2018-11-23T02:17:54.691Z,12.80
2018-11-23T02:20:24.110Z,11.70
2018-11-23T02:22:53.494Z,11.53
2018-11-23T02:25:22.875Z,12.23
2018-11-23T02:27:52.370Z,10.97
2018-11-23T02:30:24.152Z,11.17
2018-11-23T02:32:54.326Z,11.30
2018-11-23T02:35:23.792Z,11.23
2018-11-23T02:37:53.186Z,10.47
2018-11-23T02:40:22.632Z,10.97
2018-11-23T02:42:52.097Z,11.57
2018-11-23T02:45:22.735Z,11.57
2018-11-23T02:47:52.231Z,17.03
2018-11-23T02:50:21.709Z,22.07
2018-11-23T02:52:51.179Z,23.93
2018-11-23T02:55:21.165Z,16.50
2018-11-23T02:57:50.567Z,14.60
2018-11-23T03:00:21.294Z,13.80
2018-11-23T03:02:50.679Z,13.13
2018-11-23T03:05:21.534Z,13.43
2018-11-23T03:07:51.023Z,13.33
2018-11-23T03:10:20.458Z,12.60
2018-11-23T03:12:49.952Z,12.83
2018-11-23T03:15:20.265Z,12.10
2018-11-23T03:17:50.070Z,12.33
2018-11-23T03:20:20.702Z,12.07
2018-11-23T03:22:50.254Z,11.97
2018-11-23T03:25:19.695Z,13.13
2018-11-23T03:27:49.055Z,12.17
2018-11-23T03:30:19.853Z,12.90
2018-11-23T03:32:50.014Z,11.13
2018-11-23T03:35:20.106Z,11.57
2018-11-23T03:37:49.485Z,12.10
2018-11-23T03:40:19.010Z,12.57
2018-11-23T03:42:48.402Z,11.83
2018-11-23T03:45:17.909Z,11.30
2018-11-23T03:47:47.456Z,11.77
2018-11-23T03:50:17.646Z,11.83
2018-11-23T03:52:47.366Z,12.03
2018-11-23T03:55:16.780Z,14.20
2018-11-23T03:57:46.163Z,15.20
2018-11-23T04:00:18.190Z,14.77
2018-11-23T04:02:48.144Z,16.20
2018-11-23T04:05:17.942Z,18.67
2018-11-23T04:07:47.351Z,21.63
2018-11-23T04:10:17.363Z,19.10
2018-11-23T04:12:46.845Z,14.77
2018-11-23T04:15:16.355Z,13.93
2018-11-23T04:17:45.780Z,15.60
2018-11-23T04:20:16.418Z,16.43
2018-11-23T04:22:45.947Z,15.97
2018-11-23T04:25:15.479Z,16.80
2018-11-23T04:27:45.013Z,15.13
2018-11-23T04:30:15.518Z,19.03
2018-11-23T04:32:46.002Z,19.30
2018-11-23T04:35:16.602Z,18.83
2018-11-23T04:37:46.722Z,19.20
2018-11-23T04:40:17.310Z,20.20
2018-11-23T04:42:46.929Z,19.70
2018-11-23T04:45:16.595Z,19.77
2018-11-23T04:47:46.055Z,20.07
2018-11-23T04:50:16.020Z,20.33
2018-11-23T04:52:45.498Z,21.23
2018-11-23T04:55:14.991Z,23.40
2018-11-23T04:57:44.511Z,18.53
2018-11-23T05:00:15.665Z,15.10
2018-11-23T05:02:46.020Z,15.27
2018-11-23T05:05:15.614Z,18.10
2018-11-23T05:07:46.257Z,18.30
2018-11-23T05:10:16.577Z,19.47
2018-11-23T05:12:46.129Z,20.73
2018-11-23T05:15:16.894Z,25.00
2018-11-23T05:17:46.711Z,25.37
2018-11-23T05:20:16.619Z,23.60
2018-11-23T05:22:46.200Z,23.17
2018-11-23T05:25:17.075Z,23.93
2018-11-23T05:27:46.577Z,22.97
2018-11-23T05:30:18.219Z,25.00
2018-11-23T05:32:47.755Z,22.93
2018-11-23T05:35:17.955Z,19.00
2018-11-23T05:37:47.407Z,20.93
2018-11-23T05:40:19.112Z,20.90
2018-11-23T05:42:48.564Z,20.17
2018-11-23T05:45:19.435Z,23.10
2018-11-23T05:47:49.094Z,21.37
2018-11-23T05:50:20.297Z,20.53
2018-11-23T05:52:49.829Z,24.90
2018-11-23T05:55:19.373Z,20.90
2018-11-23T05:57:49.154Z,20.57
2018-11-23T06:00:22.778Z,21.10
2018-11-23T06:02:52.437Z,20.03
2018-11-23T06:05:21.874Z,20.30
2018-11-23T06:07:51.379Z,20.23
2018-11-23T06:10:21.375Z,20.50
2018-11-23T06:12:51.011Z,20.13
2018-11-23T06:15:22.614Z,21.10
2018-11-23T06:17:52.360Z,20.40
2018-11-23T06:20:23.377Z,21.00
2018-11-23T06:22:53.621Z,20.33
2018-11-23T06:25:33.107Z,19.70
2018-11-23T06:28:02.692Z,20.13
2018-11-23T06:30:32.102Z,19.27
2018-11-23T06:33:17.909Z,18.00
2018-11-23T06:35:47.353Z,18.70
2018-11-23T06:38:16.807Z,19.73
2018-11-23T06:40:46.272Z,20.07
2018-11-23T06:43:15.785Z,19.47
2018-11-23T06:45:45.351Z,19.37
2018-11-23T06:48:14.864Z,19.47
2018-11-23T06:50:44.333Z,17.57
2018-11-23T06:53:13.815Z,17.97
2018-11-23T06:55:43.307Z,19.33
2018-11-23T06:58:12.729Z,22.20
2018-11-23T07:00:42.174Z,23.53
2018-11-23T07:03:11.642Z,20.80
2018-11-23T07:05:41.201Z,20.87
2018-11-23T07:08:11.424Z,20.37
2018-11-23T07:10:40.871Z,19.60
2018-11-23T07:13:10.353Z,19.50
2018-11-23T07:15:40.014Z,21.47
2018-11-23T07:18:09.573Z,19.63
2018-11-23T07:20:39.084Z,18.57
2018-11-23T07:23:08.719Z,26.90
2018-11-23T07:25:38.199Z,22.80
2018-11-23T07:28:07.721Z,22.63
2018-11-23T07:30:37.216Z,21.97
2018-11-23T07:33:07.166Z,20.73
2018-11-23T07:35:36.764Z,21.73
2018-11-23T07:38:06.376Z,21.20
2018-11-23T07:40:53.213Z,21.70
2018-11-23T07:43:22.813Z,21.77
2018-11-23T07:45:52.306Z,20.77
2018-11-23T07:48:21.795Z,21.20
2018-11-23T07:50:51.241Z,21.83
2018-11-23T07:53:20.761Z,21.47
2018-11-23T07:55:50.228Z,23.90
2018-11-23T07:58:19.706Z,23.37
2018-11-23T08:00:49.176Z,25.33
2018-11-23T08:03:18.693Z,39.63
2018-11-23T08:05:48.183Z,27.47
2018-11-23T08:08:17.662Z,24.07
2018-11-23T08:10:46.459Z,23.00
2018-11-23T08:13:15.938Z,22.47
2018-11-23T08:15:45.366Z,20.27
2018-11-23T08:18:14.864Z,20.37
2018-11-23T08:20:44.320Z,21.57
2018-11-23T08:23:13.711Z,19.20
2018-11-23T08:25:43.143Z,20.67
2018-11-23T08:28:12.637Z,27.83
2018-11-23T08:30:42.033Z,23.10
2018-11-23T08:33:11.556Z,21.83
2018-11-23T08:35:41.046Z,19.83
2018-11-23T08:38:10.536Z,19.50
2018-11-23T08:40:39.997Z,19.03
2018-11-23T08:43:09.514Z,17.50
2018-11-23T08:45:39.029Z,17.07
2018-11-23T08:48:08.448Z,17.30
2018-11-23T08:50:37.927Z,17.23
2018-11-23T08:53:07.474Z,17.93
2018-11-23T08:55:36.924Z,18.20
2018-11-23T08:58:06.339Z,16.33
2018-11-23T09:00:35.816Z,14.83
2018-11-23T09:03:05.809Z,16.00
2018-11-23T09:05:35.241Z,19.27
2018-11-23T09:08:05.164Z,20.33
2018-11-23T09:10:34.657Z,21.40
2018-11-23T09:13:04.451Z,19.80
2018-11-23T09:15:33.824Z,26.40
2018-11-23T09:18:03.279Z,22.40
2018-11-23T09:20:32.655Z,24.63
2018-11-23T09:23:02.114Z,21.90
2018-11-23T09:25:31.466Z,22.40
2018-11-23T09:28:00.831Z,18.63
2018-11-23T09:30:30.215Z,15.90
2018-11-23T09:32:59.611Z,18.03
2018-11-23T09:35:29.823Z,17.70
2018-11-23T09:37:59.223Z,17.43
2018-11-23T09:40:29.593Z,19.53
2018-11-23T09:42:58.954Z,18.23
2018-11-23T09:45:29.851Z,17.43
2018-11-23T09:48:00.660Z,17.57
2018-11-23T09:50:30.576Z,18.03
2018-11-23T09:53:01.493Z,18.23
2018-11-23T09:55:32.076Z,19.50
2018-11-23T09:58:01.506Z,17.73
2018-11-23T10:00:32.533Z,16.80
2018-11-23T10:03:02.589Z,15.83
2018-11-23T10:05:32.687Z,16.67
2018-11-23T10:08:03.764Z,16.93
2018-11-23T10:10:45.152Z,16.70
2018-11-23T10:13:26.201Z,16.63
2018-11-23T10:16:24.118Z,16.57
2018-11-23T10:19:05.814Z,14.57
2018-11-23T10:21:39.432Z,13.40
2018-11-23T10:24:16.602Z,13.30
2018-11-23T10:26:59.604Z,12.97
2018-11-23T10:29:43.819Z,11.53
2018-11-23T10:32:19.373Z,12.90
2018-11-23T10:34:48.846Z,12.23
2018-11-23T10:37:19.973Z,12.40
2018-11-23T10:39:49.577Z,8.83
2018-11-23T10:42:22.878Z,8.93
2018-11-23T10:44:58.968Z,6.03
2018-11-23T10:47:34.634Z,6.03
2018-11-23T10:50:16.029Z,8.43
2018-11-23T10:52:52.184Z,6.43
2018-11-23T10:55:29.540Z,9.40
2018-11-23T10:58:05.116Z,7.43
2018-11-23T11:00:41.804Z,7.33
2018-11-23T11:03:16.718Z,6.20
2018-11-23T11:05:51.623Z,5.77
2018-11-23T11:08:20.986Z,4.73
2018-11-23T11:10:50.448Z,4.70
2018-11-23T11:13:19.831Z,5.00
2018-11-23T11:15:49.373Z,5.27
2018-11-23T11:18:18.888Z,3.93
2018-11-23T11:20:48.549Z,4.10
2018-11-23T11:23:18.250Z,4.77
2018-11-23T11:25:47.751Z,4.17
2018-11-23T11:28:17.176Z,4.67
2018-11-23T11:30:46.609Z,5.13
2018-11-23T11:33:16.121Z,5.33
2018-11-23T11:35:45.539Z,4.67
2018-11-23T11:38:16.054Z,3.80
2018-11-23T11:40:45.669Z,3.43
2018-11-23T11:43:15.054Z,3.83
2018-11-23T11:45:44.491Z,4.10
2018-11-23T11:48:13.930Z,3.17
2018-11-23T11:50:43.480Z,3.40
2018-11-23T11:53:12.873Z,3.87
2018-11-23T11:55:42.261Z,4.00
2018-11-23T11:58:11.622Z,3.90
2018-11-23T12:00:41.639Z,4.00
2018-11-23T12:03:11.279Z,3.60
2018-11-23T12:05:41.149Z,3.20
2018-11-23T12:08:10.656Z,3.70
2018-11-23T12:10:40.159Z,3.40
2018-11-23T12:13:10.169Z,3.80
2018-11-23T12:15:39.551Z,3.67
2018-11-23T12:18:08.957Z,3.40
2018-11-23T12:20:38.881Z,3.73
2018-11-23T12:23:08.319Z,3.83
2018-11-23T12:25:37.861Z,3.80
2018-11-23T12:28:07.214Z,3.60
2018-11-23T12:30:36.624Z,3.77
2018-11-23T12:33:06.166Z,3.50
2018-11-23T12:35:35.531Z,3.97
2018-11-23T12:38:04.997Z,4.20
2018-11-23T12:40:34.389Z,4.03
2018-11-23T12:43:03.899Z,3.80
2018-11-23T12:45:33.246Z,4.07
2018-11-23T12:48:02.652Z,4.20
2018-11-23T12:50:32.045Z,4.00
2018-11-23T12:53:06.300Z,4.27
2018-11-23T12:55:31.113Z,5.43
2018-11-23T12:58:00.501Z,5.00
2018-11-23T13:00:29.982Z,5.00
2018-11-23T13:03:02.528Z,4.77
2018-11-23T13:05:34.152Z,5.97
2018-11-23T13:08:04.937Z,6.13
2018-11-23T13:10:34.327Z,8.77
2018-11-23T13:13:03.789Z,6.30
2018-11-23T13:15:33.256Z,6.20
2018-11-23T13:18:02.901Z,5.00
2018-11-23T13:20:32.781Z,5.10
2018-11-23T13:23:02.215Z,4.97
2018-11-23T13:25:32.582Z,5.10
2018-11-23T13:28:02.244Z,11.90
2018-11-23T13:30:34.024Z,11.43
2018-11-23T13:33:04.697Z,23.57
2018-11-23T13:35:34.126Z,6.50
2018-11-23T13:38:03.617Z,6.13
2018-11-23T13:40:33.857Z,4.60
2018-11-23T13:43:03.380Z,4.57
2018-11-23T13:45:33.849Z,5.20
2018-11-23T13:48:03.766Z,5.90
2018-11-23T13:50:33.249Z,3.43
2018-11-23T13:53:02.789Z,3.60
2018-11-23T13:55:33.473Z,4.20
2018-11-23T13:58:02.990Z,3.90
2018-11-23T14:00:32.706Z,5.17
2018-11-23T14:03:02.187Z,7.63
2018-11-23T14:05:32.266Z,6.70
2018-11-23T14:08:02.713Z,4.93
2018-11-23T14:10:32.196Z,8.13
2018-11-23T14:13:01.612Z,9.07
2018-11-23T14:15:31.484Z,8.23
2018-11-23T14:18:01.365Z,8.83
2018-11-23T14:20:31.450Z,8.10
2018-11-23T14:23:00.885Z,7.90
2018-11-23T14:25:31.271Z,6.37
2018-11-23T14:28:00.700Z,6.73
2018-11-23T14:30:32.550Z,6.50
2018-11-23T14:33:02.857Z,4.60
2018-11-23T14:35:33.478Z,4.50
2018-11-23T14:38:03.153Z,4.63
2018-11-23T14:40:32.592Z,4.17
2018-11-23T14:43:02.939Z,4.43
2018-11-23T14:45:33.720Z,4.10
2018-11-23T14:48:07.947Z,4.47
2018-11-23T14:50:42.819Z,4.50
2018-11-23T14:53:12.262Z,4.77
2018-11-23T14:55:41.753Z,4.53
2018-11-23T14:58:11.272Z,4.53
2018-11-23T15:00:41.320Z,4.77
2018-11-23T15:03:11.756Z,5.00
2018-11-23T15:05:41.440Z,4.83
2018-11-23T15:08:10.936Z,4.60
2018-11-23T15:10:40.369Z,5.33
2018-11-23T15:13:09.844Z,5.50
2018-11-23T15:15:40.476Z,4.40
2018-11-23T15:18:10.581Z,4.90
2018-11-23T15:20:43.571Z,4.67
2018-11-23T15:23:16.322Z,9.30
2018-11-23T15:25:45.919Z,5.97
2018-11-23T15:28:15.763Z,7.10
2018-11-23T15:30:46.073Z,6.90
2018-11-23T15:33:16.924Z,7.37
2018-11-23T15:35:46.739Z,6.07
2018-11-23T15:38:19.838Z,6.00
2018-11-23T15:40:49.809Z,5.20
2018-11-23T15:43:20.142Z,5.70
2018-11-23T15:45:49.674Z,5.80
2018-11-23T15:48:19.290Z,5.17
2018-11-23T15:50:48.857Z,6.30
2018-11-23T15:53:18.607Z,6.07
2018-11-23T15:55:48.137Z,5.73
2018-11-23T15:58:18.204Z,5.40
2018-11-23T16:00:49.376Z,5.60
2018-11-23T16:03:18.904Z,5.70
2018-11-23T16:05:48.476Z,5.60
2018-11-23T16:08:19.797Z,5.50
2018-11-23T16:10:50.307Z,5.30
2018-11-23T16:13:19.849Z,15.73
2018-11-23T16:15:49.318Z,10.77
2018-11-23T16:18:18.860Z,6.87
2018-11-23T16:20:49.035Z,7.67
2018-11-23T16:23:20.033Z,6.20
2018-11-23T16:25:50.159Z,6.40
2018-11-23T16:28:19.738Z,7.47
2018-11-23T16:30:50.312Z,12.10
2018-11-23T16:33:21.210Z,6.93
2018-11-23T16:35:50.746Z,12.37
2018-11-23T16:38:22.354Z,6.20
2018-11-23T16:40:56.663Z,6.53
2018-11-23T16:43:26.083Z,11.27
2018-11-23T16:45:55.621Z,7.97
2018-11-23T16:48:25.174Z,7.27
2018-11-23T16:50:54.625Z,8.10
2018-11-23T16:53:24.115Z,7.97
2018-11-23T16:55:53.773Z,7.40
2018-11-23T16:58:23.178Z,8.23
2018-11-23T17:00:52.629Z,8.30
2018-11-23T17:03:22.829Z,7.87
2018-11-23T17:05:53.777Z,8.90
2018-11-23T17:08:23.349Z,9.80
2018-11-23T17:10:52.860Z,9.57
2018-11-23T17:13:22.366Z,9.43
2018-11-23T17:15:51.789Z,8.93
2018-11-23T17:18:22.084Z,10.00
2018-11-23T17:20:51.543Z,8.03
2018-11-23T17:23:21.883Z,9.90
2018-11-23T17:25:51.958Z,9.70
2018-11-23T17:28:21.911Z,11.40
2018-11-23T17:30:51.336Z,10.00
2018-11-23T17:33:20.856Z,9.27
2018-11-23T17:35:50.275Z,10.90
2018-11-23T17:38:19.654Z,9.73
2018-11-23T17:40:49.088Z,9.40
2018-11-23T17:43:18.566Z,9.80
2018-11-23T17:45:48.125Z,9.20
2018-11-23T17:48:17.707Z,9.47
2018-11-23T17:50:47.201Z,8.93
2018-11-23T17:53:16.670Z,9.23
2018-11-23T17:55:46.136Z,8.13
2018-11-23T17:58:15.567Z,8.20
2018-11-23T18:00:44.986Z,8.93
2018-11-23T18:03:14.551Z,8.60
2018-11-23T18:05:44.617Z,8.83
2018-11-23T18:08:14.076Z,9.50
2018-11-23T18:10:43.554Z,9.40
2018-11-23T18:13:13.813Z,10.43
2018-11-23T18:15:43.279Z,14.97
2018-11-23T18:18:12.775Z,9.27
2018-11-23T18:20:42.214Z,9.37
2018-11-23T18:23:11.664Z,9.67
2018-11-23T18:25:41.274Z,13.70
2018-11-23T18:28:10.759Z,9.87
2018-11-23T18:30:40.174Z,12.83
2018-11-23T18:33:09.609Z,8.87
2018-11-23T18:35:39.070Z,12.60
2018-11-23T18:38:08.510Z,9.23
2018-11-23T18:40:37.972Z,15.63
2018-11-23T18:43:07.431Z,15.83
2018-11-23T18:45:36.824Z,12.70
2018-11-23T18:48:07.317Z,11.00
2018-11-23T18:50:36.671Z,9.30
2018-11-23T18:53:06.201Z,10.67
2018-11-23T18:55:35.751Z,10.00
2018-11-23T18:58:05.255Z,12.40
2018-11-23T19:00:34.707Z,9.83
2018-11-23T19:03:04.171Z,8.83
2018-11-23T19:05:34.130Z,10.10
2018-11-23T19:08:03.484Z,11.17
2018-11-23T19:10:32.961Z,10.70
2018-11-23T19:13:03.762Z,9.93
2018-11-23T19:15:33.251Z,10.60
2018-11-23T19:18:02.782Z,11.37
2018-11-23T19:20:32.182Z,10.27
2018-11-23T19:23:01.918Z,10.47
2018-11-23T19:25:31.366Z,14.27
2018-11-23T19:28:00.933Z,10.53
2018-11-23T19:30:30.401Z,12.93
2018-11-23T19:33:00.080Z,13.23
2018-11-23T19:35:30.039Z,13.47
2018-11-23T19:37:59.558Z,11.63
2018-11-23T19:40:28.947Z,13.10
2018-11-23T19:42:58.479Z,12.37
2018-11-23T19:45:28.015Z,11.77
2018-11-23T19:47:57.484Z,11.50
2018-11-23T19:50:27.015Z,15.50
2018-11-23T19:52:56.496Z,17.27
2018-11-23T19:55:25.938Z,10.67
2018-11-23T19:57:55.284Z,14.20
2018-11-23T20:00:27.304Z,12.03
2018-11-23T20:02:56.865Z,14.93
2018-11-23T20:05:26.279Z,9.60
2018-11-23T20:07:57.104Z,8.67
2018-11-23T20:10:26.916Z,8.27
2018-11-23T20:12:57.762Z,10.93
2018-11-23T20:15:27.462Z,10.37
2018-11-23T20:17:57.033Z,10.83
2018-11-23T20:20:26.702Z,12.83
2018-11-23T20:22:56.406Z,10.03
2018-11-23T20:25:26.261Z,10.33
2018-11-23T20:27:55.721Z,11.80
2018-11-23T20:30:27.952Z,9.53
2018-11-23T20:32:57.590Z,10.83
2018-11-23T20:35:27.801Z,9.57
2018-11-23T20:37:58.327Z,10.17
2018-11-23T20:40:28.173Z,9.60
2018-11-23T20:42:57.737Z,9.10
2018-11-23T20:45:27.912Z,9.57
2018-11-23T20:47:58.206Z,9.73
2018-11-23T20:50:29.219Z,9.50
2018-11-23T20:52:59.551Z,9.93
2018-11-23T20:55:30.972Z,8.70
2018-11-23T20:58:01.503Z,8.77
2018-11-23T21:00:31.057Z,8.77
2018-11-23T21:03:00.457Z,8.60
2018-11-23T21:05:30.736Z,9.07
2018-11-23T21:08:00.782Z,10.27
2018-11-23T21:10:30.622Z,11.10
2018-11-23T21:13:00.169Z,11.37
2018-11-23T21:15:31.085Z,10.60
2018-11-23T21:18:04.393Z,14.13
2018-11-23T21:20:34.662Z,11.10
2018-11-23T21:23:04.379Z,9.83
2018-11-23T21:25:34.738Z,9.23
2018-11-23T21:28:04.385Z,9.87
2018-11-23T21:30:33.844Z,11.03
2018-11-23T21:33:03.297Z,12.80
2018-11-23T21:35:32.742Z,10.63
2018-11-23T21:38:02.269Z,14.10
2018-11-23T21:40:31.770Z,10.43
2018-11-23T21:43:01.881Z,9.13
2018-11-23T21:45:32.785Z,9.07
2018-11-23T21:48:02.433Z,7.40
2018-11-23T21:50:31.920Z,8.20
2018-11-23T21:53:01.443Z,10.57
2018-11-23T21:55:30.879Z,8.13
2018-11-23T21:58:01.344Z,8.57
2018-11-23T22:00:30.827Z,9.97
2018-11-23T22:03:00.362Z,7.23
2018-11-23T22:05:29.897Z,7.43
2018-11-23T22:08:01.545Z,8.53
2018-11-23T22:10:31.472Z,10.23
2018-11-23T22:13:01.449Z,8.07
2018-11-23T22:15:30.922Z,6.93
2018-11-23T22:18:00.404Z,6.80
2018-11-23T22:20:29.954Z,7.23
2018-11-23T22:22:59.409Z,6.73
2018-11-23T22:25:28.953Z,6.70
2018-11-23T22:27:58.447Z,6.27
2018-11-23T22:30:29.557Z,6.50
2018-11-23T22:32:59.387Z,7.00
2018-11-23T22:35:30.144Z,5.60
2018-11-23T22:37:59.644Z,5.37
2018-11-23T22:40:29.139Z,4.90
2018-11-23T22:42:59.302Z,4.57
2018-11-23T22:45:28.824Z,4.67
2018-11-23T22:47:58.291Z,4.50
2018-11-23T22:50:27.740Z,5.07
2018-11-23T22:52:57.296Z,4.30
2018-11-23T22:55:26.737Z,4.73
2018-11-23T22:57:56.184Z,5.33
2018-11-23T23:01:31.215Z,5.00
2018-11-23T23:04:01.549Z,5.90
2018-11-23T23:06:31.102Z,5.47
2018-11-23T23:09:00.586Z,4.73
2018-11-23T23:11:30.099Z,5.17
2018-11-23T23:14:00.344Z,5.07
2018-11-23T23:16:29.886Z,5.37
2018-11-23T23:18:59.351Z,4.70
2018-11-23T23:21:28.824Z,4.47
2018-11-23T23:23:58.343Z,5.60
2018-11-23T23:26:27.909Z,4.97
2018-11-23T23:28:57.402Z,6.63
2018-11-23T23:31:27.442Z,6.50
2018-11-23T23:33:57.232Z,6.43
2018-11-23T23:36:26.764Z,4.90
2018-11-23T23:38:56.944Z,4.17
2018-11-23T23:41:26.657Z,5.27
2018-11-23T23:43:56.059Z,5.73
2018-11-23T23:46:25.859Z,6.63
2018-11-23T23:48:55.332Z,4.90
2018-11-23T23:51:24.752Z,4.50
2018-11-23T23:53:54.277Z,4.57
2018-11-23T23:56:23.799Z,4.27
2018-11-23T23:58:53.604Z,3.87
